createdAt,value
2022-07-26T00:00:51.165Z,66.30
2022-07-26T00:03:18.440Z,66.00
2022-07-26T00:05:45.817Z,66.40
2022-07-26T00:08:13.090Z,66.50
2022-07-26T00:10:46.181Z,66.80
2022-07-26T00:13:13.500Z,67.30
2022-07-26T00:15:40.702Z,68.10
2022-07-26T00:18:11.608Z,68.40
2022-07-26T00:20:39.989Z,68.50
2022-07-26T00:23:09.147Z,68.70
2022-07-26T00:25:36.615Z,69.00
2022-07-26T00:28:04.544Z,69.10
2022-07-26T00:30:32.045Z,68.40
2022-07-26T00:32:59.451Z,65.80
2022-07-26T00:35:26.922Z,65.00
2022-07-26T00:37:54.090Z,64.10
2022-07-26T00:40:21.630Z,63.40
2022-07-26T00:42:48.903Z,62.90
2022-07-26T00:45:17.288Z,62.50
2022-07-26T00:47:44.855Z,61.80
2022-07-26T00:50:15.284Z,61.40
2022-07-26T00:52:51.636Z,60.80
2022-07-26T00:55:19.172Z,59.90
2022-07-26T00:57:46.509Z,58.00
2022-07-26T01:00:17.782Z,57.10
2022-07-26T01:02:45.744Z,56.90
2022-07-26T01:05:13.584Z,57.30
2022-07-26T01:07:41.377Z,58.00
2022-07-26T01:10:13.865Z,58.90
2022-07-26T01:12:42.863Z,60.20
2022-07-26T01:15:11.812Z,61.50
2022-07-26T01:17:39.297Z,59.80
2022-07-26T01:20:09.954Z,58.30
2022-07-26T01:22:37.452Z,58.20
2022-07-26T01:25:05.472Z,60.70
2022-07-26T01:27:34.495Z,63.50
2022-07-26T01:30:01.906Z,64.80
2022-07-26T01:32:30.885Z,65.90
2022-07-26T01:34:58.108Z,66.90
2022-07-26T01:37:25.364Z,67.70
2022-07-26T01:39:52.557Z,68.20
2022-07-26T01:42:19.791Z,68.30
2022-07-26T01:44:46.975Z,67.60
2022-07-26T01:47:14.398Z,67.50
2022-07-26T01:49:41.776Z,67.70
2022-07-26T01:52:08.952Z,68.60
2022-07-26T01:54:36.157Z,70.10
2022-07-26T01:59:31.265Z,71.10
2022-07-26T02:02:00.805Z,71.80
2022-07-26T02:04:46.957Z,70.40
2022-07-26T02:07:14.362Z,68.70
2022-07-26T02:09:41.591Z,69.10
2022-07-26T02:12:09.131Z,69.70
2022-07-26T02:14:36.483Z,69.30
2022-07-26T02:17:03.999Z,68.90
2022-07-26T02:19:31.900Z,68.30
2022-07-26T02:21:59.571Z,68.30
2022-07-26T02:24:29.128Z,68.20
2022-07-26T02:26:58.192Z,68.80
2022-07-26T02:29:26.323Z,69.90
2022-07-26T02:31:54.826Z,71.00
2022-07-26T02:34:22.071Z,71.30
2022-07-26T02:36:49.399Z,71.90
2022-07-26T02:39:16.993Z,72.50
2022-07-26T02:41:44.344Z,73.20
2022-07-26T02:44:12.110Z,74.00
2022-07-26T02:46:39.635Z,74.30
2022-07-26T02:49:07.002Z,74.80
2022-07-26T02:51:34.382Z,74.60
2022-07-26T02:54:01.635Z,74.60
2022-07-26T02:56:29.304Z,75.10
2022-07-26T02:58:56.682Z,75.60
2022-07-26T03:01:24.062Z,75.00
2022-07-26T03:03:51.622Z,74.50
2022-07-26T03:06:20.068Z,74.60
2022-07-26T03:08:48.505Z,74.40
2022-07-26T03:11:16.099Z,74.80
2022-07-26T03:13:43.507Z,74.90
2022-07-26T03:16:11.267Z,75.30
2022-07-26T03:18:39.045Z,76.20
2022-07-26T03:21:06.676Z,77.30
2022-07-26T03:23:34.995Z,77.90
2022-07-26T03:26:03.128Z,78.50
2022-07-26T03:28:34.185Z,78.70
2022-07-26T03:31:01.566Z,79.10
2022-07-26T03:33:29.694Z,78.90
2022-07-26T03:35:57.012Z,79.60
2022-07-26T03:38:24.881Z,79.90
2022-07-26T03:40:52.432Z,79.50
2022-07-26T03:43:23.045Z,79.70
2022-07-26T03:45:51.209Z,79.90
2022-07-26T03:48:22.218Z,79.70
2022-07-26T03:50:49.744Z,80.30
2022-07-26T03:53:18.364Z,80.50
2022-07-26T03:56:04.668Z,80.80
2022-07-26T03:58:32.043Z,80.90
2022-07-26T04:00:59.245Z,81.20
2022-07-26T04:03:26.517Z,80.60
2022-07-26T04:05:55.086Z,80.50
2022-07-26T04:08:23.357Z,80.60
2022-07-26T04:10:53.669Z,80.60
2022-07-26T04:13:21.021Z,80.70
2022-07-26T04:15:48.195Z,81.60
2022-07-26T04:18:15.542Z,81.20
2022-07-26T04:20:43.570Z,81.00
2022-07-26T04:23:12.318Z,80.70
2022-07-26T04:25:41.682Z,80.60
2022-07-26T04:30:38.039Z,78.40
2022-07-26T04:33:06.532Z,80.70
2022-07-26T04:35:34.197Z,81.10
2022-07-26T04:38:04.833Z,82.40
2022-07-26T04:40:33.716Z,83.90
2022-07-26T04:43:02.427Z,84.70
2022-07-26T04:45:34.823Z,85.00
2022-07-26T04:48:02.117Z,85.60
2022-07-26T04:50:29.660Z,85.70
2022-07-26T04:52:57.062Z,85.90
2022-07-26T04:55:24.365Z,86.10
2022-07-26T04:57:52.089Z,86.60
2022-07-26T05:00:24.201Z,87.20
2022-07-26T05:02:55.034Z,87.10
2022-07-26T05:05:23.461Z,86.90
2022-07-26T05:07:53.756Z,86.70
2022-07-26T05:10:22.537Z,85.90
2022-07-26T05:12:49.771Z,85.70
2022-07-26T05:15:17.098Z,86.30
2022-07-26T05:17:44.427Z,87.00
2022-07-26T05:20:15.195Z,88.00
2022-07-26T05:22:42.796Z,88.30
2022-07-26T05:25:10.354Z,88.10
2022-07-26T05:27:39.082Z,87.30
2022-07-26T05:30:06.806Z,86.70
2022-07-26T05:32:34.153Z,86.90
2022-07-26T05:35:01.433Z,87.40
2022-07-26T05:37:30.581Z,87.60
2022-07-26T05:39:57.745Z,87.80
2022-07-26T05:42:25.865Z,87.70
2022-07-26T05:44:55.997Z,86.30
2022-07-26T05:47:23.618Z,85.20
2022-07-26T05:49:50.778Z,82.60
2022-07-26T05:52:18.012Z,78.30
2022-07-26T05:54:45.503Z,75.00
2022-07-26T05:57:12.840Z,75.80
2022-07-26T05:59:40.117Z,79.30
2022-07-26T06:02:08.522Z,81.30
2022-07-26T06:04:36.496Z,81.80
2022-07-26T06:07:03.859Z,82.20
2022-07-26T06:09:32.654Z,81.30
2022-07-26T06:11:59.874Z,80.80
2022-07-26T06:14:27.159Z,81.20
2022-07-26T06:16:55.553Z,82.00
2022-07-26T06:19:22.843Z,83.10
2022-07-26T06:21:50.128Z,82.90
2022-07-26T06:24:17.429Z,82.20
2022-07-26T06:26:46.462Z,81.90
2022-07-26T06:29:14.054Z,81.60
2022-07-26T06:31:41.403Z,81.10
2022-07-26T06:34:10.082Z,79.70
2022-07-26T06:36:37.663Z,80.20
2022-07-26T06:39:05.048Z,80.10
2022-07-26T06:41:32.316Z,79.60
2022-07-26T06:43:59.463Z,79.80
2022-07-26T06:46:26.858Z,79.20
2022-07-26T06:48:56.995Z,79.00
2022-07-26T06:51:24.673Z,78.50
2022-07-26T06:53:51.910Z,78.70
2022-07-26T06:56:19.733Z,78.20
2022-07-26T06:58:47.207Z,77.40
2022-07-26T07:01:57.524Z,77.10
2022-07-26T07:04:02.372Z,77.40
2022-07-26T07:06:29.701Z,76.40
2022-07-26T07:08:56.871Z,76.40
2022-07-26T07:11:24.541Z,76.00
2022-07-26T07:13:53.213Z,76.50
2022-07-26T07:16:20.425Z,77.50
2022-07-26T07:18:47.761Z,79.00
2022-07-26T07:21:15.031Z,80.50
2022-07-26T07:23:42.323Z,81.70
2022-07-26T07:26:09.584Z,81.70
2022-07-26T07:28:39.445Z,81.30
2022-07-26T07:31:06.978Z,80.50
2022-07-26T07:33:43.829Z,81.60
2022-07-26T07:36:21.557Z,82.00
2022-07-26T07:38:49.370Z,80.70
2022-07-26T07:41:18.806Z,79.90
2022-07-26T07:43:46.281Z,78.30
2022-07-26T07:46:13.916Z,78.70
2022-07-26T07:48:46.972Z,76.50
2022-07-26T07:51:15.084Z,74.70
2022-07-26T07:53:43.374Z,73.70
2022-07-26T07:56:24.409Z,73.20
2022-07-26T07:58:52.295Z,73.00
2022-07-26T08:01:19.887Z,73.20
2022-07-26T08:03:50.183Z,72.70
2022-07-26T08:06:18.544Z,72.80
2022-07-26T08:08:45.818Z,70.50
2022-07-26T08:11:16.167Z,69.60
2022-07-26T08:13:47.711Z,69.80
2022-07-26T08:16:15.536Z,69.40
2022-07-26T08:18:56.140Z,69.20
2022-07-26T08:21:28.349Z,67.80
2022-07-26T08:23:57.741Z,67.00
2022-07-26T08:26:25.186Z,67.10
2022-07-26T08:29:00.169Z,66.70
2022-07-26T08:31:30.670Z,67.40
2022-07-26T08:33:58.241Z,68.00
2022-07-26T08:36:31.846Z,68.10
2022-07-26T08:38:59.950Z,68.50
2022-07-26T08:41:27.319Z,68.20
2022-07-26T08:43:54.605Z,67.50
2022-07-26T08:46:25.929Z,65.80
2022-07-26T08:48:57.845Z,66.70
2022-07-26T08:51:26.673Z,63.60
2022-07-26T08:54:04.277Z,62.40
2022-07-26T08:56:37.189Z,59.70
2022-07-26T08:59:06.390Z,60.80
2022-07-26T09:01:34.189Z,62.70
2022-07-26T09:04:31.009Z,59.50
2022-07-26T09:07:10.465Z,60.60
2022-07-26T09:09:59.180Z,59.70
2022-07-26T09:12:28.454Z,59.60
2022-07-26T09:14:57.094Z,56.00
2022-07-26T09:17:36.796Z,56.30
2022-07-26T09:20:10.276Z,56.80
2022-07-26T09:23:06.170Z,56.80
2022-07-26T09:25:36.544Z,54.80
2022-07-26T09:28:04.964Z,53.20
2022-07-26T09:30:33.026Z,52.80
2022-07-26T09:33:05.932Z,52.00
2022-07-26T09:35:50.787Z,52.40
2022-07-26T09:38:19.454Z,51.70
2022-07-26T09:40:51.184Z,52.20
2022-07-26T09:43:23.672Z,52.10
2022-07-26T09:46:07.066Z,51.90
2022-07-26T09:49:07.138Z,51.20
2022-07-26T09:51:37.802Z,51.10
2022-07-26T09:54:05.157Z,50.10
2022-07-26T09:56:50.011Z,50.30
2022-07-26T09:59:22.917Z,50.10
2022-07-26T10:01:52.115Z,49.30
2022-07-26T10:04:20.650Z,50.30
2022-07-26T10:06:48.590Z,50.90
2022-07-26T10:09:18.482Z,50.90
2022-07-26T10:11:56.509Z,50.20
2022-07-26T10:14:40.507Z,49.90
2022-07-26T10:17:31.655Z,49.40
2022-07-26T10:20:03.876Z,49.80
2022-07-26T10:22:36.063Z,50.30
2022-07-26T10:25:18.434Z,50.50
2022-07-26T10:27:46.949Z,49.60
2022-07-26T10:30:22.573Z,48.90
2022-07-26T10:33:01.692Z,49.40
2022-07-26T10:35:36.339Z,49.80
2022-07-26T10:38:06.499Z,49.30
2022-07-26T10:40:34.022Z,49.00
2022-07-26T10:46:19.014Z,47.50
2022-07-26T10:49:04.571Z,47.10
2022-07-26T10:51:40.544Z,47.20
2022-07-26T10:54:10.525Z,46.80
2022-07-26T10:56:38.669Z,46.90
2022-07-26T10:59:06.459Z,46.70
2022-07-26T11:01:38.804Z,47.30
2022-07-26T11:04:19.253Z,46.50
2022-07-26T11:06:47.888Z,46.70
2022-07-26T11:09:16.041Z,46.60
2022-07-26T11:11:46.315Z,45.80
2022-07-26T11:14:17.334Z,45.20
2022-07-26T11:16:50.420Z,44.80
2022-07-26T11:19:24.382Z,44.80
2022-07-26T11:21:59.670Z,44.50
2022-07-26T11:24:28.243Z,44.80
2022-07-26T11:26:58.195Z,44.70
2022-07-26T11:29:38.261Z,44.90
2022-07-26T11:32:18.143Z,44.40
2022-07-26T11:34:46.347Z,44.50
2022-07-26T11:37:14.052Z,44.00
2022-07-26T11:39:41.468Z,44.30
2022-07-26T11:42:11.584Z,44.30
2022-07-26T11:44:43.088Z,44.90
2022-07-26T11:47:25.252Z,44.10
2022-07-26T11:52:41.430Z,44.80
2022-07-26T11:55:09.431Z,44.60
2022-07-26T11:57:38.170Z,44.40
2022-07-26T12:00:06.327Z,44.60
2022-07-26T12:02:39.496Z,44.60
2022-07-26T12:05:17.205Z,44.50
2022-07-26T12:08:04.306Z,44.00
2022-07-26T12:10:32.094Z,44.10
2022-07-26T12:13:10.500Z,43.70
2022-07-26T12:15:53.255Z,43.50
2022-07-26T12:18:28.580Z,44.00
2022-07-26T12:21:04.935Z,43.10
2022-07-26T12:23:43.878Z,43.00
2022-07-26T12:26:26.147Z,43.50
2022-07-26T12:28:54.777Z,42.80
2022-07-26T12:31:34.226Z,43.60
2022-07-26T12:34:01.615Z,43.50
2022-07-26T12:36:30.309Z,42.90
2022-07-26T12:39:02.183Z,42.30
2022-07-26T12:41:40.254Z,42.20
2022-07-26T12:44:11.989Z,42.80
2022-07-26T12:46:40.262Z,41.60
2022-07-26T12:49:07.612Z,41.90
2022-07-26T12:51:34.973Z,41.50
2022-07-26T12:54:03.433Z,41.70
2022-07-26T12:56:30.818Z,41.30
2022-07-26T12:59:01.675Z,40.80
2022-07-26T13:01:30.524Z,41.40
2022-07-26T13:03:58.155Z,41.70
2022-07-26T13:06:25.517Z,40.50
2022-07-26T13:08:52.746Z,40.10
2022-07-26T13:11:19.966Z,40.10
2022-07-26T13:13:47.189Z,39.30
2022-07-26T13:16:14.517Z,37.50
2022-07-26T13:18:41.728Z,35.60
2022-07-26T13:21:08.957Z,34.20
2022-07-26T13:23:36.288Z,32.80
2022-07-26T13:26:04.416Z,31.70
2022-07-26T13:28:37.127Z,30.80
2022-07-26T13:31:04.549Z,29.90
2022-07-26T13:33:33.151Z,29.10
2022-07-26T13:36:00.814Z,27.50
2022-07-26T13:38:28.968Z,27.70
2022-07-26T13:40:56.511Z,27.40
2022-07-26T13:43:24.635Z,27.10
2022-07-26T13:45:51.939Z,26.90
2022-07-26T13:48:20.724Z,26.70
2022-07-26T13:50:48.911Z,26.80
2022-07-26T13:53:16.494Z,26.70
2022-07-26T13:55:43.713Z,27.20
2022-07-26T13:58:10.903Z,27.10
2022-07-26T14:00:39.975Z,27.30
2022-07-26T14:03:07.549Z,27.20
2022-07-26T14:05:35.629Z,27.00
2022-07-26T14:08:03.029Z,27.50
2022-07-26T14:10:30.239Z,27.30
2022-07-26T14:12:57.705Z,27.30
2022-07-26T14:15:25.170Z,27.30
2022-07-26T14:17:52.863Z,27.40
2022-07-26T14:20:21.458Z,27.20
2022-07-26T14:22:53.448Z,27.30
2022-07-26T14:25:25.451Z,27.00
2022-07-26T14:27:54.709Z,27.40
2022-07-26T14:30:22.710Z,27.90
2022-07-26T14:32:50.710Z,28.80
2022-07-26T14:35:18.266Z,27.70
2022-07-26T14:37:46.155Z,27.80
2022-07-26T14:40:16.143Z,28.00
2022-07-26T14:42:44.280Z,27.90
2022-07-26T14:45:12.559Z,28.00
2022-07-26T14:47:39.827Z,28.10
2022-07-26T14:50:08.798Z,27.70
2022-07-26T14:52:45.964Z,27.40
2022-07-26T14:55:14.503Z,27.70
2022-07-26T14:57:42.002Z,28.00
2022-07-26T15:00:12.214Z,28.20
2022-07-26T15:02:41.380Z,28.00
2022-07-26T15:05:10.921Z,27.40
2022-07-26T15:07:38.704Z,27.30
2022-07-26T15:10:08.122Z,27.20
2022-07-26T15:12:35.780Z,26.90
2022-07-26T15:15:05.146Z,27.40
2022-07-26T15:17:32.596Z,28.00
2022-07-26T15:19:59.784Z,27.70
2022-07-26T15:22:27.060Z,27.10
2022-07-26T15:24:54.437Z,27.10
2022-07-26T15:27:21.810Z,27.50
2022-07-26T15:29:50.711Z,27.50
2022-07-26T15:32:19.777Z,27.40
2022-07-26T15:34:49.156Z,27.40
2022-07-26T15:37:16.499Z,27.60
2022-07-26T15:39:43.766Z,27.70
2022-07-26T15:42:11.138Z,27.80
2022-07-26T15:44:42.616Z,27.90
2022-07-26T15:47:11.239Z,28.00
2022-07-26T15:49:40.283Z,27.80
2022-07-26T15:52:10.582Z,27.80
2022-07-26T15:54:38.185Z,27.90
2022-07-26T15:57:05.576Z,27.70
2022-07-26T15:59:32.798Z,27.60
2022-07-26T16:02:00.480Z,27.80
2022-07-26T16:04:27.847Z,28.00
2022-07-26T16:06:55.246Z,28.00
2022-07-26T16:09:22.483Z,28.40
2022-07-26T16:11:49.857Z,28.60
2022-07-26T16:14:17.440Z,29.10
2022-07-26T16:16:45.467Z,29.70
2022-07-26T16:19:13.441Z,30.00
2022-07-26T16:21:41.501Z,29.90
2022-07-26T16:24:09.003Z,30.40
2022-07-26T16:26:36.632Z,30.90
2022-07-26T16:29:04.725Z,31.20
2022-07-26T16:31:33.123Z,31.80
2022-07-26T16:34:00.714Z,31.90
2022-07-26T16:36:29.316Z,32.00
2022-07-26T16:38:56.605Z,32.40
2022-07-26T16:41:24.474Z,32.70
2022-07-26T16:43:52.011Z,33.30
2022-07-26T16:46:19.345Z,33.50
2022-07-26T16:48:46.613Z,33.70
2022-07-26T16:51:14.129Z,33.80
2022-07-26T16:53:41.663Z,33.90
2022-07-26T16:56:09.537Z,34.00
2022-07-26T16:58:37.746Z,34.00
2022-07-26T17:01:04.981Z,34.50
2022-07-26T17:03:32.248Z,42.60
2022-07-26T17:08:34.094Z,47.30
2022-07-26T17:11:01.509Z,49.20
2022-07-26T17:13:28.804Z,50.20
2022-07-26T17:15:56.073Z,51.00
2022-07-26T17:18:23.414Z,51.70
2022-07-26T17:20:50.877Z,52.40
2022-07-26T17:23:21.284Z,52.90
2022-07-26T17:25:48.625Z,53.40
2022-07-26T17:28:15.898Z,53.90
2022-07-26T17:30:43.191Z,54.10
2022-07-26T17:33:10.707Z,54.30
2022-07-26T17:35:38.019Z,55.40
2022-07-26T17:38:05.305Z,55.20
2022-07-26T17:40:33.820Z,55.50
2022-07-26T17:43:01.213Z,56.00
2022-07-26T17:45:28.582Z,56.40
2022-07-26T17:47:55.843Z,56.90
2022-07-26T17:50:38.874Z,57.40
2022-07-26T17:53:06.586Z,57.70
2022-07-26T17:55:33.952Z,57.80
2022-07-26T17:58:01.239Z,57.80
2022-07-26T18:00:28.838Z,57.90
2022-07-26T18:02:57.472Z,58.20
2022-07-26T18:05:31.709Z,58.40
2022-07-26T18:08:01.569Z,58.20
2022-07-26T18:10:29.229Z,58.50
2022-07-26T18:12:56.486Z,58.60
2022-07-26T18:15:24.055Z,58.60
2022-07-26T18:17:51.427Z,58.70
2022-07-26T18:20:18.819Z,58.70
2022-07-26T18:22:50.453Z,58.50
2022-07-26T18:25:18.202Z,58.40
2022-07-26T18:27:45.580Z,58.40
2022-07-26T18:30:12.920Z,57.50
2022-07-26T18:32:40.232Z,57.20
2022-07-26T18:35:07.782Z,57.40
2022-07-26T18:37:34.975Z,57.60
2022-07-26T18:40:03.446Z,57.80
2022-07-26T18:42:30.714Z,57.90
2022-07-26T18:44:57.992Z,58.10
2022-07-26T18:47:25.344Z,58.10
2022-07-26T18:49:52.623Z,58.20
2022-07-26T18:52:28.932Z,58.50
2022-07-26T18:55:06.997Z,58.70
2022-07-26T18:57:35.998Z,58.50
2022-07-26T19:00:25.452Z,58.70
2022-07-26T19:02:54.149Z,58.90
2022-07-26T19:05:22.872Z,59.10
2022-07-26T19:07:51.318Z,59.30
2022-07-26T19:10:20.165Z,59.50
2022-07-26T19:12:48.516Z,59.40
2022-07-26T19:15:16.634Z,59.70
2022-07-26T19:17:44.265Z,59.70
2022-07-26T19:20:12.366Z,60.00
2022-07-26T19:22:40.370Z,60.10
2022-07-26T19:25:10.481Z,60.40
2022-07-26T19:27:38.804Z,60.60
2022-07-26T19:30:10.861Z,60.90
2022-07-26T19:32:39.227Z,61.10
2022-07-26T19:35:07.349Z,61.20
2022-07-26T19:37:34.701Z,61.50
2022-07-26T19:40:03.742Z,62.00
2022-07-26T19:42:32.366Z,62.40
2022-07-26T19:45:00.165Z,62.70
2022-07-26T19:47:29.737Z,63.00
2022-07-26T19:49:57.662Z,63.40
2022-07-26T19:52:24.997Z,63.80
2022-07-26T19:54:52.256Z,64.40
2022-07-26T19:57:19.881Z,64.60
2022-07-26T19:59:47.806Z,65.10
2022-07-26T20:02:15.207Z,65.30
2022-07-26T20:04:45.865Z,65.60
2022-07-26T20:07:19.350Z,65.90
2022-07-26T20:09:48.687Z,66.10
2022-07-26T20:12:16.516Z,66.60
2022-07-26T20:14:43.982Z,67.00
2022-07-26T20:17:11.990Z,67.40
2022-07-26T20:19:41.052Z,67.70
2022-07-26T20:22:08.860Z,68.00
2022-07-26T20:24:38.121Z,68.10
2022-07-26T20:27:07.047Z,68.60
2022-07-26T20:29:34.350Z,68.90
2022-07-26T20:32:01.797Z,69.00
2022-07-26T20:34:29.038Z,69.40
2022-07-26T20:36:56.415Z,69.80
2022-07-26T20:39:26.157Z,69.90
2022-07-26T20:41:53.862Z,70.50
2022-07-26T20:44:27.959Z,70.70
2022-07-26T20:46:55.980Z,70.50
2022-07-26T20:49:23.230Z,70.80
2022-07-26T20:51:50.470Z,70.80
2022-07-26T20:54:17.904Z,70.60
2022-07-26T20:56:45.189Z,70.80
2022-07-26T20:59:12.814Z,71.00
2022-07-26T21:01:40.302Z,71.10
2022-07-26T21:04:11.977Z,71.00
2022-07-26T21:06:39.284Z,71.00
2022-07-26T21:09:08.871Z,71.30
2022-07-26T21:11:37.970Z,72.00
2022-07-26T21:14:05.335Z,71.90
2022-07-26T21:16:32.858Z,72.50
2022-07-26T21:19:00.778Z,73.00
2022-07-26T21:21:28.075Z,73.40
2022-07-26T21:23:55.405Z,73.70
2022-07-26T21:26:22.769Z,74.00
2022-07-26T21:28:50.019Z,74.70
2022-07-26T21:31:17.214Z,75.40
2022-07-26T21:33:44.992Z,76.10
2022-07-26T21:36:14.322Z,76.80
2022-07-26T21:38:42.098Z,77.90
2022-07-26T21:41:09.482Z,79.20
2022-07-26T21:43:40.616Z,80.20
2022-07-26T21:46:12.409Z,81.30
2022-07-26T21:48:40.812Z,82.20
2022-07-26T21:51:08.173Z,82.50
2022-07-26T21:53:35.474Z,82.60
2022-07-26T21:56:03.091Z,82.90
2022-07-26T21:58:34.535Z,83.30
2022-07-26T22:01:06.651Z,83.90
2022-07-26T22:03:36.574Z,84.60
2022-07-26T22:06:05.084Z,85.30
2022-07-26T22:08:32.343Z,86.30
2022-07-26T22:10:59.596Z,87.20
2022-07-26T22:13:27.169Z,88.30
2022-07-26T22:15:54.495Z,89.10
2022-07-26T22:18:21.803Z,89.60
2022-07-26T22:20:49.896Z,89.60
2022-07-26T22:23:18.781Z,89.70
2022-07-26T22:25:46.295Z,90.00
2022-07-26T22:28:18.465Z,90.10
2022-07-26T22:30:46.465Z,90.40
2022-07-26T22:33:14.111Z,91.10
2022-07-26T22:35:41.483Z,90.70
2022-07-26T22:38:11.051Z,91.00
2022-07-26T22:40:39.702Z,91.20
2022-07-26T22:43:07.570Z,91.40
2022-07-26T22:45:35.110Z,91.50
2022-07-26T22:48:04.173Z,91.80
2022-07-26T22:50:32.193Z,91.90
2022-07-26T22:53:01.017Z,92.60
2022-07-26T22:55:28.958Z,92.60
2022-07-26T22:57:56.316Z,92.90
2022-07-26T23:00:24.088Z,93.10
2022-07-26T23:02:51.590Z,93.20
2022-07-26T23:05:19.452Z,93.60
2022-07-26T23:07:48.073Z,93.50
2022-07-26T23:10:17.081Z,93.50
2022-07-26T23:12:44.777Z,93.50
2022-07-26T23:15:12.552Z,93.70
2022-07-26T23:17:39.962Z,94.00
2022-07-26T23:20:09.001Z,94.60
2022-07-26T23:22:36.446Z,95.00
2022-07-26T23:25:04.626Z,95.10
2022-07-26T23:27:31.883Z,95.10
2022-07-26T23:29:59.107Z,94.90
2022-07-26T23:32:26.445Z,94.80
2022-07-26T23:34:55.199Z,94.60
2022-07-26T23:37:22.559Z,94.50
2022-07-26T23:39:49.749Z,94.40
2022-07-26T23:42:16.948Z,94.40
2022-07-26T23:44:44.098Z,94.80
2022-07-26T23:47:11.449Z,95.00
2022-07-26T23:49:38.698Z,95.20
2022-07-26T23:52:05.998Z,95.70
2022-07-26T23:54:33.222Z,96.10
2022-07-26T23:57:00.594Z,96.70
2022-07-26T23:59:27.801Z,97.00
